Chanthaburi, Thailand

8:22 AM ICT on August 22, 2014 (GMT +0700)
TRAT/KHAO SAMIN | Change Station
CLOSE
Current Station
Airport
Location: TRAT/KHAO SAMIN,
Elevation: 105 ft
Nearby Weather Stations

Elev 105 ft 12.27 °N, 102.32 °E | Updated 22 minutes ago

Scattered Clouds
Scattered Clouds
79 °F
Feels Like 79 °F
N
0
Wind Variable Wind from North

Today
High -- | Low -- °F
--% Chance of Precip.
Yesterday
High -- | Low -- °F
Precip. -- in
6:00 AM 6:28 PM
Waning Crescent, 11% visible
Pressure 29.86 in
Visibility 6.2 miles
Clouds Few 2200 ft
Scattered Clouds 15000 ft
Dew Point 79 °F
Humidity 100%
Rainfall 0.00 in
Snow Depth Not available.
UV 3 out of 12
Pollen Not available.
Air Quality Not available.
Flu Activity Not available.
METAR VTBO 220100Z 00000KT 9999 FEW022 SCT150 26/26 Q1011

More Conditions Fewer Conditions

Pressure 29.86 in
Visibility 6.2 miles
Clouds Few 2200 ft
Scattered Clouds 15000 ft
Dew Point 79 °F
Humidity 100%
Rainfall 0.00 in
Snow Depth Not available.
UV 3 out of 12
Pollen Not available.
Air Quality Not available.
Flu Activity Not available.
METAR VTBO 220100Z 00000KT 9999 FEW022 SCT150 26/26 Q1011

More Conditions Fewer Conditions

10-Day Weather Forecast

Almanac

Astronomy

Aug. 22, 2014 Rise Set
Actual Time 6:00 AM ICT 6:28 PM ICT
Civil Twilight 5:38 AM ICT 6:50 PM ICT
Nautical Twilight 5:13 AM ICT 7:15 PM ICT
Astronomical Twilight 4:47 AM ICT 7:41 PM ICT
Moon 3:09 AM ICT 4:04 PM ICT
Length of Visible Light 13h 11m
Length of Day
12h 28m
Tomorrow will be 0m 39s shorter.
Waning Crescent, 11% of the Moon is Illuminated
Aug 21
Waning Crescent
Aug 25
New
Sep 2
First Quarter
Sep 8
Full
Sep 15
Last Quarter

Yesterday's Extremes

Country Highs Country Lows

Community

WunderPhotos

Upload Photos

1,746,102 photos uploaded!

Nearby

Snow Depth

Not available.

Earthquake Activity

City Distance Mag. Time & Date
No recent earthquake activity has been reported nearby.
Minimum magnitude displayed is 2.5.

Coastal Water Temperatures

Place Temperature
No Stations Reporting

Nearby Weather Stations